Latest Coastal Weather Observations for Frankston

IDV60701

Issued at 3:45 pm EST Friday 1 August 2014 (issued every 10 minutes, with the page automatically refreshed every 10 minutes)

About coastal observations | Map of coastal stations | Coastal observations for VIC | Marine services | Other Formats
Station Details ID: 086371 Name: FRANKSTON AWS Lat: -38.15 Lon: 145.12 Height: 6.0 m
Data from the previous 72 hours. | See also: Recent months at Frankston
Date/Time
EST
Temp

°C
Wind Pressure Rain
since 9am
mm
Weather Cloud Vis
km
Sea
Height
m
Swell
Dir
 
Speed
knots
Gust
knots
hPa Trend Height
m
Period
s
Dir
01/03:44pm 10.0 WSW 25 31 - - - - - - - - - -
01/03:30pm 9.0 W 18 22 - - - - - - - - - -
01/03:00pm 8.5 WNW 20 24 - - - - - - - - - -
01/02:30pm 7.8 WNW 16 21 - - - - - - - - - -
01/02:00pm 7.5 WNW 10 13 - - - - - - - - - -
01/01:30pm 7.6 W 19 24 - - - - - - - - - -
01/01:00pm 7.7 WNW 23 31 - - - - - - - - - -
01/12:30pm 7.4 WNW 24 30 - - - - - - - - - -
01/12:00pm 6.8 WNW 25 31 - - - - - - - - - -
01/11:30am 8.2 WNW 25 33 - - - - - - - - - -
01/11:21am 8.0 W 27 33 - - - - - - - - - -
01/11:00am 8.6 NW 22 27 - - - - - - - - - -
01/10:30am 8.8 NNW 21 26 - - - - - - - - - -
01/10:00am 8.5 NW 20 25 - - - - - - - - - -
01/09:30am 8.4 NNW 19 26 - - - - - - - - - -
01/09:00am 7.8 NNW 18 22 - - - - - - - - - -
01/08:30am 7.6 N 19 23 - - - - - - - - - -
01/08:00am 7.4 N 17 22 - - - - - - - - - -
01/07:30am 7.9 N 14 19 - - - - - - - - - -
01/07:00am 7.2 N 12 16 - - - - - - - - - -
01/06:30am 7.1 N 13 18 - - - - - - - - - -
01/06:00am 8.1 N 16 22 - - - - - - - - - -
01/05:30am 8.5 NNW 18 23 - - - - - - - - - -
01/05:00am 8.5 NNW 14 19 - - - - - - - - - -
01/04:30am 8.4 NW 18 23 - - - - - - - - - -
01/04:00am 8.4 NNW 19 25 - - - - - - - - - -
01/03:30am 8.6 NNW 17 23 - - - - - - - - - -
01/03:24am 8.7 NNW 17 27 - - - - - - - - - -
01/03:00am 8.6 NW 18 23 - - - - - - - - - -
01/02:30am 8.6 NNW 18 22 - - - - - - - - - -
01/02:00am 8.4 NW 19 23 - - - - - - - - - -
01/01:30am 8.6 NW 16 21 - - - - - - - - - -
01/01:00am 8.7 NW 17 23 - - - - - - - - - -
01/12:30am 9.0 WNW 18 23 - - - - - - - - - -
01/12:00am 9.2 WNW 21 28 - - - - - - - - - -
 
Date/Time
EST
Temp

°C
Wind Pressure Rain
since 9am
mm
Weather Cloud Vis
km
Sea
Height
m
Swell
Dir
 
Speed
knots
Gust
knots
hPa Trend Height
m
Period
s
Dir
31/11:30pm 9.2 NW 21 26 - - - - - - - - - -
31/11:00pm 9.1 NW 20 25 - - - - - - - - - -
31/10:30pm 9.2 NW 22 26 - - - - - - - - - -
31/10:00pm 9.8 WNW 21 27 - - - - - - - - - -
31/09:30pm 9.7 NW 22 28 - - - - - - - - - -
31/09:00pm 9.6 WNW 24 29 - - - - - - - - - -
31/08:30pm 9.6 NW 20 27 - - - - - - - - - -
31/08:00pm 9.2 NNW 19 23 - - - - - - - - - -
31/07:30pm 8.9 NNW 19 24 - - - - - - - - - -
31/07:00pm 8.7 NNW 18 22 - - - - - - - - - -
31/06:30pm 8.4 NW 20 24 - - - - - - - - - -
31/06:00pm 8.3 WNW 21 25 - - - - - - - - - -
31/05:30pm 8.3 WNW 24 31 - - - - - - - - - -
31/05:00pm 8.1 W 27 34 - - - - - - - - - -
31/04:30pm 8.5 W 27 35 - - - - - - - - - -
31/04:00pm 9.0 W 28 35 - - - - - - - - - -
31/03:30pm 9.1 W 27 36 - - - - - - - - - -
31/03:00pm 10.3 W 27 34 - - - - - - - - - -
31/02:30pm 11.5 W 24 28 - - - - - - - - - -
31/02:27pm 14.1 W 25 28 - - - - - - - - - -
31/02:05pm 16.1 NNW 22 32 - - - - - - - - - -
31/02:00pm 15.7 NNW 22 27 - - - - - - - - - -
31/01:30pm 15.2 NNW 22 28 - - - - - - - - - -
31/01:00pm 15.7 N 27 35 - - - - - - - - - -
31/12:36pm 15.8 N 28 39 - - - - - - - - - -
31/12:30pm 15.8 N 29 38 - - - - - - - - - -
31/12:12pm 15.7 N 28 40 - - - - - - - - - -
31/12:00pm 15.5 N 29 37 - - - - - - - - - -
31/11:30am 15.4 NNW 25 35 - - - - - - - - - -
31/11:19am 15.4 NNW 25 36 - - - - - - - - - -
31/11:00am 15.0 N 24 31 - - - - - - - - - -
31/10:30am 14.5 N 25 35 - - - - - - - - - -
31/10:28am 14.9 N 25 35 - - - - - - - - - -
31/10:00am 14.6 N 24 32 - - - - - - - - - -
31/09:30am 14.5 N 22 30 - - - - - - - - - -
31/09:00am 14.2 N 19 27 - - - - - - - - - -
31/08:33am 14.3 N 19 30 - - - - - - - - - -
31/08:30am 13.9 N 18 24 - - - - - - - - - -
31/08:00am 14.0 N 17 22 - - - - - - - - - -
31/07:30am 14.4 N 20 24 - - - - - - - - - -
31/07:00am 14.0 N 20 27 - - - - - - - - - -
31/06:30am 13.9 N 19 24 - - - - - - - - - -
31/06:00am 13.7 N 19 22 - - - - - - - - - -
31/05:30am 13.7 N 19 22 - - - - - - - - - -
31/05:00am 13.6 N 18 22 - - - - - - - - - -
31/04:30am 14.0 N 17 21 - - - - - - - - - -
31/04:00am 14.0 N 18 22 - - - - - - - - - -
31/03:30am 13.9 N 15 19 - - - - - - - - - -
31/03:00am 14.4 N 15 19 - - - - - - - - - -
31/02:30am 14.3 N 14 21 - - - - - - - - - -
31/02:00am 14.4 N 17 20 - - - - - - - - - -
31/01:30am 14.1 N 18 22 - - - - - - - - - -
31/01:00am 14.4 N 20 25 - - - - - - - - - -
31/12:30am 14.0 N 16 19 - - - - - - - - - -
31/12:00am 14.5 N 16 20 - - - - - - - - - -
 
Date/Time
EST
Temp

°C
Wind Pressure Rain
since 9am
mm
Weather Cloud Vis
km
Sea
Height
m
Swell
Dir
 
Speed
knots
Gust
knots
hPa Trend Height
m
Period
s
Dir
30/11:30pm 14.6 N 18 25 - - - - - - - - - -
30/11:00pm 14.7 N 19 24 - - - - - - - - - -
30/10:30pm 14.5 N 15 18 - - - - - - - - - -
30/10:00pm 14.8 N 15 18 - - - - - - - - - -
30/09:30pm 14.9 N 16 22 - - - - - - - - - -
30/09:00pm 14.5 NNW 15 19 - - - - - - - - - -
30/08:30pm 14.5 NNW 16 20 - - - - - - - - - -
30/08:00pm 15.0 N 18 22 - - - - - - - - - -
30/07:30pm 15.0 N 16 20 - - - - - - - - - -
30/07:00pm 15.1 N 17 21 - - - - - - - - - -
30/06:30pm 15.0 N 14 18 - - - - - - - - - -
30/06:00pm 15.0 N 16 19 - - - - - - - - - -
30/05:30pm 14.8 N 13 16 - - - - - - - - - -
30/05:00pm 14.8 N 14 19 - - - - - - - - - -
30/04:30pm 14.4 NNW 14 18 - - - - - - - - - -
30/04:00pm 14.8 NW 19 23 - - - - - - - - - -
30/03:30pm 14.8 NNW 14 18 - - - - - - - - - -
30/03:00pm 14.7 NNW 14 19 - - - - - - - - - -
30/02:30pm 13.9 NNW 11 13 - - - - - - - - - -
30/02:00pm 14.1 NNW 12 14 - - - - - - - - - -
30/01:30pm 14.2 NNW 13 17 - - - - - - - - - -
30/01:00pm 14.1 NW 12 15 - - - - - - - - - -
30/12:30pm 14.2 NW 13 16 - - - - - - - - - -
30/12:00pm 13.6 NNW 11 13 - - - - - - - - - -
30/11:30am 13.8 N 14 16 - - - - - - - - - -
30/11:00am 13.8 N 15 18 - - - - - - - - - -
30/10:30am 13.9 N 16 22 - - - - - - - - - -
30/10:00am 13.5 NNW 13 15 - - - - - - - - - -
30/09:30am 13.5 N 16 21 - - - - - - - - - -
30/09:00am 12.6 N 11 14 - - - - - - - - - -
30/08:30am 12.4 N 11 13 - - - - - - - - - -
30/08:00am 12.4 N 7 9 - - - - - - - - - -
30/07:30am 12.9 NNW 10 17 - - - - - - - - - -
30/07:00am 12.7 N 9 11 - - - - - - - - - -
30/06:30am 12.9 NNW 10 15 - - - - - - - - - -
30/06:00am 12.1 NW 10 13 - - - - - - - - - -
30/05:30am 11.9 NW 13 16 - - - - - - - - - -
30/05:00am 12.3 WNW 15 19 - - - - - - - - - -
30/04:30am 12.1 NW 18 23 - - - - - - - - - -
30/04:11am 13.2 NW 21 27 - - - - - - - - - -
30/04:00am 12.4 NW 9 10 - - - - - - - - - -
30/03:30am 12.5 WNW 14 17 - - - - - - - - - -
30/03:00am 13.4 NW 15 19 - - - - - - - - - -
30/02:30am 12.3 WNW 9 11 - - - - - - - - - -
30/02:00am 12.4 WNW 14 18 - - - - - - - - - -
30/01:30am 12.5 WNW 15 18 - - - - - - - - - -
30/01:00am 13.4 NW 15 18 - - - - - - - - - -
30/12:30am 13.0 WNW 11 14 - - - - - - - - - -
30/12:00am 12.5 W 18 21 - - - - - - - - - -
 
Date/Time
EST
Temp

°C
Wind Pressure Rain
since 9am
mm
Weather Cloud Vis
km
Sea
Height
m
Swell
Dir
 
Speed
knots
Gust
knots
hPa Trend Height
m
Period
s
Dir
29/11:40pm 13.6 NW 15 22 - - - - - - - - - -
29/11:30pm 12.4 W 7 10 - - - - - - - - - -
29/11:00pm 12.3 W 10 12 - - - - - - - - - -
29/10:30pm 12.7 W 12 18 - - - - - - - - - -
29/10:00pm 15.3 NW 16 27 - - - - - - - - - -
29/09:58pm 15.5 NNW 16 27 - - - - - - - - - -
29/09:30pm 13.8 NNW 14 19 - - - - - - - - - -
29/09:00pm 14.4 NNW 16 21 - - - - - - - - - -
29/08:30pm 14.5 NNW 15 20 - - - - - - - - - -
29/08:00pm 14.0 NNW 16 20 - - - - - - - - - -
29/07:30pm 14.1 NNW 15 18 - - - - - - - - - -
29/07:00pm 14.3 NNW 16 20 - - - - - - - - - -
29/06:44pm 14.5 NNW 15 25 - - - - - - - - - -
29/06:30pm 14.0 NNW 14 18 - - - - - - - - - -
29/06:00pm 14.2 N 16 19 - - - - - - - - - -
29/05:30pm 13.1 N 15 20 - - - - - - - - - -
29/05:05pm 14.3 NNW 18 25 - - - - - - - - - -
29/05:00pm 12.5 WNW 10 15 - - - - - - - - - -
29/04:30pm 13.9 N 12 18 - - - - - - - - - -
29/04:00pm 13.2 N 16 20 - - - - - - - - - -

Other Formats:

Comma delimited format used in spreadsheet applications
http://www.bom.gov.au/fwo/IDV60701/IDV60701.94871.axf

JavaScript Object Notation format (JSON) in row-major order
http://www.bom.gov.au/fwo/IDV60701/IDV60701.94871.json